Time;durP1;ratioP1;P1;durP2;ratioP2;P2;SDS_P1;SDS_P2;PMS_P1;PMS_P2;Temp;Humidity;BMP_temperature;BMP_pressure;BME280_temperature;BME280_humidity;BME280_pressure;Samples;Min_cycle;Max_cycle;Signal;HPM_P1;HPM_P2
2023/06/29 00:01:35;;;;;;;;;;;19.50;69.20;;;-151.14;100.00;62537.16;5090566;28;19926;-84
2023/06/29 00:04:03;;;;;;;;;;;19.50;69.30;;;-151.14;100.00;62537.16;5090987;28;19926;-84
2023/06/29 00:06:37;;;;;;;;;;;19.50;69.30;;;-151.14;100.00;62537.16;5074284;28;19926;-84
2023/06/29 00:09:06;;;;;;;;;;;19.50;69.50;;;-151.14;100.00;62537.16;5090865;28;19920;-84
2023/06/29 00:11:34;;;;;;;;;;;19.40;69.60;;;-151.14;100.00;62537.16;5091635;28;19920;-84
2023/06/29 00:14:02;;;;;;;;;;;19.40;69.30;;;-151.14;100.00;62537.16;5092026;28;19921;-84
2023/06/29 00:16:31;;;;;;;;;;;19.40;69.20;;;-151.14;100.00;62537.16;5090688;28;19934;-84
2023/06/29 00:19:00;;;;;;;;;;;19.40;69.00;;;-151.14;100.00;62537.16;5090876;28;19920;-84
2023/06/29 00:21:28;;;;;;;;;;;19.40;69.10;;;-151.14;100.00;62537.16;5091407;28;19935;-84
2023/06/29 00:23:56;;;;;;;;;;;19.40;68.90;;;-151.14;100.00;62537.16;5090752;28;19927;-84
2023/06/29 00:26:28;;;;;;;;;;;19.40;68.80;;;-151.14;100.00;62537.16;5078262;28;19935;-84
2023/06/29 00:28:56;;;;;;;;;;;19.40;68.70;;;-151.14;100.00;62537.16;5090739;28;19920;-84
2023/06/29 00:31:24;;;;;;;;;;;19.40;68.70;;;-151.14;100.00;62537.16;5073496;28;19926;-84
2023/06/29 00:33:52;;;;;;;;;;;19.40;68.70;;;-151.14;100.00;62537.16;5107551;28;19926;-84
2023/06/29 00:36:20;;;;;;;;;;;19.40;68.80;;;-151.14;100.00;62537.16;5073691;28;19920;-84
2023/06/29 00:38:49;;;;;;;;;;;19.40;68.70;;;-151.14;100.00;62537.16;5091648;28;19926;-84
2023/06/29 00:41:17;;;;;;;;;;;19.40;68.80;;;-151.14;100.00;62537.16;5073231;28;19920;-84
2023/06/29 00:43:48;;;;;;;;;;;19.40;69.10;;;-151.14;100.00;62537.16;5090312;28;19943;-84
2023/06/29 00:46:18;;;;;;;;;;;19.40;69.20;;;-151.14;100.00;62537.16;5090390;28;19927;-84
2023/06/29 00:48:46;;;;;;;;;;;19.40;69.00;;;-151.14;100.00;62537.16;5073640;28;20120;-84
2023/06/29 00:51:15;;;;;;;;;;;19.40;69.00;;;-151.14;100.00;62537.16;5072920;28;19920;-84
2023/06/29 00:53:43;;;;;;;;;;;19.40;69.00;;;-151.14;100.00;62537.16;5090265;28;20010;-84
2023/06/29 00:56:11;;;;;;;;;;;19.30;68.70;;;-151.14;100.00;62537.16;5073505;28;19920;-84
2023/06/29 00:58:39;;;;;;;;;;;19.30;68.70;;;-151.14;100.00;62537.16;5070154;28;19920;-84
2023/06/29 01:01:08;;;;;;;;;;;19.30;69.20;;;-151.14;100.00;62537.16;5069446;28;20208;-84
2023/06/29 01:03:40;;;;;;;;;;;19.30;69.30;;;-151.14;100.00;62537.16;5087031;28;19921;-84
2023/06/29 01:06:08;;;;;;;;;;;19.30;69.30;;;-151.14;100.00;62537.16;5070264;28;19920;-84
2023/06/29 01:08:37;;;;;;;;;;;19.30;68.80;;;-151.14;100.00;62537.16;5071155;28;19921;-84
2023/06/29 01:11:09;;;;;;;;;;;19.30;68.80;;;-151.14;100.00;62537.16;5052888;28;19942;-85
2023/06/29 01:13:37;;;;;;;;;;;19.30;69.00;;;-151.14;100.00;62537.16;5069939;28;19935;-84
2023/06/29 01:16:05;;;;;;;;;;;19.30;68.90;;;-151.14;100.00;62537.16;5071074;28;20112;-84
2023/06/29 01:18:35;;;;;;;;;;;19.30;68.70;;;-151.14;100.00;62537.16;5053142;28;19921;-84
2023/06/29 01:21:03;;;;;;;;;;;19.30;68.60;;;-151.14;100.00;62537.16;5053230;28;19927;-85
2023/06/29 01:23:36;;;;;;;;;;;19.30;68.90;;;-151.14;100.00;62537.16;5087460;28;19920;-84
2023/06/29 01:26:06;;;;;;;;;;;19.30;68.60;;;-151.14;100.00;62537.16;5089928;28;20037;-84
2023/06/29 01:28:38;;;;;;;;;;;19.30;68.50;;;-151.14;100.00;62537.16;5073029;28;20208;-84
2023/06/29 01:31:06;;;;;;;;;;;19.30;68.80;;;-151.14;100.00;62537.16;5091122;28;19920;-84
2023/06/29 01:33:34;;;;;;;;;;;19.30;68.70;;;-151.14;100.00;62537.16;5090049;28;19920;-84
2023/06/29 01:36:05;;;;;;;;;;;19.30;68.60;;;-151.14;100.00;62537.16;5094478;28;19920;-85
2023/06/29 01:38:38;;;;;;;;;;;19.20;68.30;;;-151.14;100.00;62537.16;5076671;28;19927;-84
2023/06/29 01:41:09;;;;;;;;;;;19.20;68.10;;;-151.14;100.00;62537.16;5075995;28;20125;-85
2023/06/29 01:43:37;;;;;;;;;;;19.20;68.40;;;-151.14;100.00;62537.16;5076586;28;19926;-84
2023/06/29 01:46:05;;;;;;;;;;;19.20;68.50;;;-151.14;100.00;62537.16;5093146;28;19920;-84
2023/06/29 01:48:33;;;;;;;;;;;19.20;68.30;;;-151.14;100.00;62537.16;5094372;28;20119;-84
2023/06/29 01:51:01;;;;;;;;;;;19.20;68.20;;;-151.14;100.00;62537.16;5076539;28;19920;-84
2023/06/29 01:53:29;;;;;;;;;;;19.20;68.00;;;-151.14;100.00;62537.16;5103118;28;20131;-84
2023/06/29 01:55:57;;;;;;;;;;;19.20;68.00;;;-151.14;100.00;62537.16;5093360;28;20111;-84
2023/06/29 01:58:28;;;;;;;;;;;19.10;68.20;;;-151.14;100.00;62537.16;5093629;28;19955;-84
2023/06/29 02:00:56;;;;;;;;;;;19.10;68.20;;;-151.14;100.00;62537.16;5076324;28;19920;-84
2023/06/29 02:03:24;;;;;;;;;;;19.10;68.20;;;-151.14;100.00;62537.16;5075826;28;19927;-84
2023/06/29 02:05:52;;;;;;;;;;;19.10;68.10;;;-151.14;100.00;62537.16;5093189;28;19934;-84
2023/06/29 02:08:21;;;;;;;;;;;19.10;68.00;;;-151.14;100.00;62537.16;5093180;28;19928;-84
2023/06/29 02:10:49;;;;;;;;;;;19.10;67.90;;;-151.14;100.00;62537.16;5093178;28;19920;-84
2023/06/29 02:13:17;;;;;;;;;;;19.10;68.00;;;-151.14;100.00;62537.16;5092671;28;19920;-84
2023/06/29 02:15:46;;;;;;;;;;;19.10;68.50;;;-151.14;100.00;62537.16;5110021;28;19931;-85
2023/06/29 02:18:14;;;;;;;;;;;19.10;68.30;;;-151.14;100.00;62537.16;5094200;28;20112;-85
2023/06/29 02:20:42;;;;;;;;;;;19.10;67.60;;;-151.14;100.00;62537.16;5093079;28;20112;-84
2023/06/29 02:23:10;;;;;;;;;;;19.10;67.90;;;-151.14;100.00;62537.16;5092533;28;20132;-84
2023/06/29 02:25:38;;;;;;;;;;;19.10;67.90;;;-151.14;100.00;62537.16;5092486;28;19927;-84
2023/06/29 02:28:06;;;;;;;;;;;19.10;67.70;;;-151.14;100.00;62537.16;5075156;28;19924;-85
2023/06/29 02:30:34;;;;;;;;;;;19.10;67.90;;;-151.14;100.00;62537.16;5109657;28;19920;-85
2023/06/29 02:33:03;;;;;;;;;;;19.00;67.80;;;-151.14;100.00;62537.16;5075655;28;20216;-85
2023/06/29 02:35:31;;;;;;;;;;;19.00;67.50;;;-151.14;100.00;62537.16;5075871;28;20119;-85
2023/06/29 02:37:59;;;;;;;;;;;19.00;67.40;;;-151.14;100.00;62537.16;5092979;28;19920;-84
2023/06/29 02:40:27;;;;;;;;;;;19.00;67.70;;;-151.14;100.00;62537.16;5075835;28;19921;-84
2023/06/29 02:42:55;;;;;;;;;;;19.00;67.40;;;-151.14;100.00;62537.16;5093351;28;19926;-84
2023/06/29 02:45:23;;;;;;;;;;;19.00;67.60;;;-151.14;100.00;62537.16;5074598;28;20234;-85
2023/06/29 02:47:51;;;;;;;;;;;19.00;67.70;;;-151.14;100.00;62537.16;5092618;28;19927;-84
2023/06/29 02:50:21;;;;;;;;;;;19.00;67.70;;;-151.14;100.00;62537.16;5092591;28;19927;-85
2023/06/29 02:52:51;;;;;;;;;;;19.00;67.50;;;-151.14;100.00;62537.16;5092179;28;19920;-85
2023/06/29 02:55:20;;;;;;;;;;;19.00;67.70;;;-151.14;100.00;62537.16;5055711;28;19934;-85
2023/06/29 02:57:48;;;;;;;;;;;19.00;67.50;;;-151.14;100.00;62537.16;5055726;28;19920;-85
2023/06/29 03:00:16;;;;;;;;;;;18.90;67.40;;;-151.14;100.00;62537.16;5055544;28;19921;-84
2023/06/29 03:02:44;;;;;;;;;;;18.90;67.50;;;-151.14;100.00;62537.16;5055269;28;20038;-84
2023/06/29 03:05:12;;;;;;;;;;;18.90;67.70;;;-151.14;100.00;62537.16;5072055;28;20417;-85
2023/06/29 03:07:41;;;;;;;;;;;18.90;67.90;;;-151.14;100.00;62537.16;5072115;28;19920;-85
2023/06/29 03:10:09;;;;;;;;;;;18.90;68.10;;;-151.14;100.00;62537.16;5072202;28;19927;-84
2023/06/29 03:12:37;;;;;;;;;;;18.90;67.80;;;-151.14;100.00;62537.16;5071442;28;20226;-85
2023/06/29 03:15:06;;;;;;;;;;;18.90;67.50;;;-151.14;100.00;62537.16;5055039;28;20234;-84
2023/06/29 03:17:34;;;;;;;;;;;18.90;67.60;;;-151.14;100.00;62537.16;5073131;28;19927;-84
2023/06/29 03:20:02;;;;;;;;;;;18.90;67.50;;;-151.14;100.00;62537.16;5072949;28;20224;-84
2023/06/29 03:22:31;;;;;;;;;;;18.90;67.80;;;-151.14;100.00;62537.16;5072556;28;19927;-85
2023/06/29 03:25:00;;;;;;;;;;;18.90;67.50;;;-151.14;100.00;62537.16;5073233;28;19921;-85
2023/06/29 03:27:28;;;;;;;;;;;18.90;67.70;;;-151.14;100.00;62537.16;5072697;28;19921;-85
2023/06/29 03:29:56;;;;;;;;;;;18.90;67.70;;;-151.14;100.00;62537.16;5071766;28;19921;-84
2023/06/29 03:32:24;;;;;;;;;;;18.90;67.70;;;-151.14;100.00;62537.16;5071067;28;20124;-84
2023/06/29 03:34:51;;;;;;;;;;;18.90;67.70;;;-151.14;100.00;62537.16;5054702;28;19927;-85
2023/06/29 03:37:19;;;;;;;;;;;18.90;67.80;;;-151.14;100.00;62537.16;5071408;28;19926;-84
2023/06/29 03:39:47;;;;;;;;;;;18.90;67.90;;;-151.14;100.00;62537.16;5072700;28;19927;-84
2023/06/29 03:42:17;;;;;;;;;;;18.90;67.60;;;-151.14;100.00;62537.16;5054250;28;19927;-84
2023/06/29 03:44:45;;;;;;;;;;;19.00;67.60;;;-151.14;100.00;62537.16;5054849;28;19927;-84
2023/06/29 03:47:12;;;;;;;;;;;19.00;67.40;;;-151.14;100.00;62537.16;5071342;28;19927;-85
2023/06/29 03:49:40;;;;;;;;;;;19.00;67.90;;;-151.14;100.00;62537.16;5071497;28;19920;-84
2023/06/29 03:52:08;;;;;;;;;;;19.00;67.60;;;-151.14;100.00;62537.16;5070748;28;19921;-85
2023/06/29 03:54:36;;;;;;;;;;;19.00;68.00;;;-151.14;100.00;62537.16;5071483;28;19920;-85
2023/06/29 03:57:04;;;;;;;;;;;19.00;67.90;;;-151.14;100.00;62537.16;5071889;28;19920;-85
2023/06/29 03:59:33;;;;;;;;;;;19.00;68.00;;;-151.14;100.00;62537.16;5054833;28;20115;-85
2023/06/29 04:02:01;;;;;;;;;;;19.00;67.90;;;-151.14;100.00;62537.16;5070608;28;19920;-84
2023/06/29 04:04:29;;;;;;;;;;;19.00;68.30;;;-151.14;100.00;62537.16;5071340;28;19921;-84
2023/06/29 04:06:57;;;;;;;;;;;19.10;68.20;;;-151.14;100.00;62537.16;5054237;28;19927;-84
2023/06/29 04:09:25;;;;;;;;;;;19.10;68.20;;;-151.14;100.00;62537.16;5087710;28;19927;-85
2023/06/29 04:11:53;;;;;;;;;;;19.10;68.10;;;-151.14;100.00;62537.16;5070581;28;19926;-84
2023/06/29 04:14:21;;;;;;;;;;;19.10;67.90;;;-151.14;100.00;62537.16;5071053;28;19921;-84
2023/06/29 04:16:50;;;;;;;;;;;19.10;67.40;;;-151.14;100.00;62537.16;5071795;28;19927;-84
2023/06/29 04:19:18;;;;;;;;;;;19.10;67.60;;;-151.14;100.00;62537.16;5070957;28;19921;-84
2023/06/29 04:21:46;;;;;;;;;;;19.10;67.80;;;-151.14;100.00;62537.16;5070212;28;19920;-84
2023/06/29 04:24:13;;;;;;;;;;;19.10;67.10;;;-151.14;100.00;62537.16;5070863;28;19927;-85
2023/06/29 04:26:41;;;;;;;;;;;19.00;68.70;;;-151.14;100.00;62537.16;5090963;28;20208;-84
2023/06/29 04:29:09;;;;;;;;;;;19.00;68.10;;;-151.14;100.00;62537.16;5091962;28;19920;-84
2023/06/29 04:31:37;;;;;;;;;;;19.00;67.80;;;-151.14;100.00;62537.16;5073678;28;20203;-85
2023/06/29 04:34:07;;;;;;;;;;;19.00;68.10;;;-151.14;100.00;62537.16;5092187;28;19920;-84
2023/06/29 04:36:34;;;;;;;;;;;18.90;68.60;;;-151.14;100.00;62537.16;5091706;28;19926;-85
2023/06/29 04:39:03;;;;;;;;;;;18.90;68.80;;;-151.14;100.00;62537.16;5090792;28;20212;-85
2023/06/29 04:41:34;;;;;;;;;;;18.90;69.00;;;-151.14;100.00;62537.16;5089855;28;19920;-85
2023/06/29 04:44:03;;;;;;;;;;;19.00;68.70;;;-151.14;100.00;62537.16;5090862;28;19920;-84
2023/06/29 04:46:30;;;;;;;;;;;19.10;68.90;;;-151.14;100.00;62537.16;5090399;28;20120;-84
2023/06/29 04:49:04;;;;;;;;;;;19.10;67.40;;;-151.14;100.00;62537.16;5091844;28;20227;-85
2023/06/29 04:51:34;;;;;;;;;;;19.10;67.80;;;-151.14;100.00;62537.16;5091259;28;20216;-84
2023/06/29 04:54:02;;;;;;;;;;;19.10;68.40;;;-151.14;100.00;62537.16;5090402;28;19927;-84
2023/06/29 04:56:29;;;;;;;;;;;19.10;69.40;;;-151.14;100.00;62537.16;5090244;28;19920;-83
2023/06/29 04:58:57;;;;;;;;;;;19.10;67.30;;;-151.14;100.00;62537.16;5090530;28;19926;-84
2023/06/29 05:01:25;;;;;;;;;;;19.10;68.40;;;-151.14;100.00;62537.16;5089810;28;19920;-85
2023/06/29 05:03:53;;;;;;;;;;;19.20;67.80;;;-151.14;100.00;62537.16;5073606;28;19920;-85
2023/06/29 05:06:21;;;;;;;;;;;19.20;68.40;;;-151.14;100.00;62537.16;5090442;28;19924;-85
2023/06/29 05:08:50;;;;;;;;;;;19.30;67.00;;;-151.14;100.00;62537.16;5072838;28;19920;-83
2023/06/29 05:11:18;;;;;;;;;;;19.30;66.80;;;-151.14;100.00;62537.16;5089763;28;19920;-85
2023/06/29 05:13:46;;;;;;;;;;;19.30;66.70;;;-151.14;100.00;62537.16;5073679;28;19926;-85
2023/06/29 05:16:14;;;;;;;;;;;19.30;67.80;;;-151.14;100.00;62537.16;5091495;28;19926;-84
2023/06/29 05:18:42;;;;;;;;;;;19.30;67.60;;;-151.14;100.00;62537.16;5091297;28;19935;-83
2023/06/29 05:21:10;;;;;;;;;;;19.40;67.20;;;-151.14;100.00;62537.16;5072828;28;19947;-85
2023/06/29 05:23:38;;;;;;;;;;;19.40;66.90;;;-151.14;100.00;62537.16;5089988;28;19920;-85
2023/06/29 05:26:07;;;;;;;;;;;19.40;67.20;;;-151.14;100.00;62537.16;5091222;28;19927;-84
2023/06/29 05:28:35;;;;;;;;;;;19.40;66.90;;;-151.14;100.00;62537.16;5090057;28;20115;-84
2023/06/29 05:31:03;;;;;;;;;;;19.40;67.40;;;-151.14;100.00;62537.16;5091141;28;19927;-84
2023/06/29 05:33:31;;;;;;;;;;;19.50;67.30;;;-151.14;100.00;62537.16;5089594;28;19920;-85
2023/06/29 05:35:59;;;;;;;;;;;19.50;67.20;;;-151.14;100.00;62537.16;5106708;28;19920;-84
2023/06/29 05:38:29;;;;;;;;;;;19.50;67.00;;;-151.14;100.00;62537.16;5089867;28;19927;-85
2023/06/29 05:40:57;;;;;;;;;;;19.50;67.10;;;-151.14;100.00;62537.16;5089983;28;19927;-85
2023/06/29 05:43:26;;;;;;;;;;;19.50;67.10;;;-151.14;100.00;62537.16;5090290;28;19926;-84
2023/06/29 05:45:54;;;;;;;;;;;19.50;67.50;;;-151.14;100.00;62537.16;5089654;28;19954;-84
2023/06/29 05:48:22;;;;;;;;;;;19.50;67.50;;;-151.14;100.00;62537.16;5089772;28;19920;-84
2023/06/29 05:50:50;;;;;;;;;;;19.50;67.50;;;-151.14;100.00;62537.16;5089712;28;20097;-84
2023/06/29 05:53:18;;;;;;;;;;;19.50;67.80;;;-151.14;100.00;62537.16;5089085;28;19929;-85
2023/06/29 05:55:45;;;;;;;;;;;19.60;68.50;;;-151.14;100.00;62537.16;5089933;28;19920;-84
2023/06/29 05:58:13;;;;;;;;;;;19.60;67.80;;;-151.14;100.00;62537.16;5090574;28;19926;-84
2023/06/29 06:00:43;;;;;;;;;;;19.60;67.90;;;-151.14;100.00;62537.16;5106478;28;19920;-84
2023/06/29 06:03:12;;;;;;;;;;;19.60;67.80;;;-151.14;100.00;62537.16;5088815;28;19920;-85
2023/06/29 06:05:40;;;;;;;;;;;19.70;67.80;;;-151.14;100.00;62537.16;5089630;28;20116;-84
2023/06/29 06:08:08;;;;;;;;;;;19.70;68.00;;;-151.14;100.00;62537.16;5072396;28;19931;-84
2023/06/29 06:10:36;;;;;;;;;;;19.70;67.90;;;-151.14;100.00;62537.16;5072671;28;19942;-84
2023/06/29 06:13:04;;;;;;;;;;;19.80;67.70;;;-151.14;100.00;62537.16;5071910;28;19920;-84
2023/06/29 06:15:32;;;;;;;;;;;19.80;67.60;;;-151.14;100.00;62537.16;5089296;28;19920;-84
2023/06/29 06:18:01;;;;;;;;;;;19.80;67.50;;;-151.14;100.00;62537.16;5089109;28;19920;-84
2023/06/29 06:20:29;;;;;;;;;;;19.90;67.30;;;-151.14;100.00;62537.16;5091048;28;19924;-84
2023/06/29 06:22:57;;;;;;;;;;;19.90;67.20;;;-151.14;100.00;62537.16;5092987;28;19920;-84
2023/06/29 06:25:26;;;;;;;;;;;19.90;67.20;;;-151.14;100.00;62537.16;5092698;28;19927;-84
2023/06/29 06:27:54;;;;;;;;;;;20.00;66.80;;;-151.14;100.00;62537.16;5075708;28;20093;-84
2023/06/29 06:30:23;;;;;;;;;;;20.00;66.70;;;-151.14;100.00;62537.16;5093698;28;19920;-84
2023/06/29 06:32:51;;;;;;;;;;;20.00;66.70;;;-151.14;100.00;62537.16;5091735;28;20132;-84
2023/06/29 06:35:21;;;;;;;;;;;20.00;66.80;;;-151.14;100.00;62537.16;5093688;28;19924;-84
2023/06/29 06:37:48;;;;;;;;;;;20.00;66.70;;;-151.14;100.00;62537.16;5092408;28;19920;-84
2023/06/29 06:40:16;;;;;;;;;;;20.00;66.50;;;-151.14;100.00;62537.16;5092133;28;20128;-83
2023/06/29 06:42:44;;;;;;;;;;;20.10;66.40;;;-151.14;100.00;62537.16;5108694;28;20235;-84
2023/06/29 06:45:13;;;;;;;;;;;20.10;66.30;;;-151.14;100.00;62537.16;5092421;28;20115;-84
2023/06/29 06:47:41;;;;;;;;;;;20.10;66.40;;;-151.14;100.00;62537.16;5092433;28;19927;-84
2023/06/29 06:50:10;;;;;;;;;;;20.10;66.60;;;-151.14;100.00;62537.16;5075319;28;20094;-83
2023/06/29 06:52:39;;;;;;;;;;;20.10;66.50;;;-151.14;100.00;62537.16;5108483;28;19920;-84
2023/06/29 06:55:08;;;;;;;;;;;20.10;66.40;;;-151.14;100.00;62537.16;5075256;28;19927;-84
2023/06/29 06:57:36;;;;;;;;;;;20.20;66.50;;;-151.14;100.00;62537.16;5075261;28;19926;-84
2023/06/29 07:00:05;;;;;;;;;;;20.10;66.60;;;-151.14;100.00;62537.16;5092145;28;19920;-83
2023/06/29 07:02:33;;;;;;;;;;;20.20;66.40;;;-151.14;100.00;62537.16;5091570;28;19926;-83
2023/06/29 07:05:01;;;;;;;;;;;20.10;66.30;;;-151.14;100.00;62537.16;5091811;28;19920;-84
2023/06/29 07:07:29;;;;;;;;;;;20.10;66.40;;;-151.14;100.00;62537.16;5091991;28;19920;-84
2023/06/29 07:09:59;;;;;;;;;;;20.10;66.50;;;-151.14;100.00;62537.16;5091766;28;20231;-84
2023/06/29 07:12:27;;;;;;;;;;;20.10;66.40;;;-151.14;100.00;62537.16;5091134;28;19920;-84
2023/06/29 07:14:54;;;;;;;;;;;20.10;66.50;;;-151.14;100.00;62537.16;5092897;28;19920;-84
2023/06/29 07:17:22;;;;;;;;;;;20.10;66.60;;;-151.14;100.00;62537.16;5075383;28;19921;-83
2023/06/29 07:19:50;;;;;;;;;;;20.10;66.50;;;-151.14;100.00;62537.16;5092170;28;19926;-84
2023/06/29 07:22:18;;;;;;;;;;;20.10;66.40;;;-151.14;100.00;62537.16;5091182;28;19920;-84
2023/06/29 07:24:46;;;;;;;;;;;20.20;66.50;;;-151.14;100.00;62537.16;5088316;28;19943;-84
2023/06/29 07:27:15;;;;;;;;;;;20.20;66.40;;;-151.14;100.00;62537.16;5054881;28;19926;-84
2023/06/29 07:29:44;;;;;;;;;;;20.20;66.40;;;-151.14;100.00;62537.16;5090611;28;19924;-84
2023/06/29 07:32:12;;;;;;;;;;;20.20;66.50;;;-151.14;100.00;62537.16;5091432;28;19920;-84
2023/06/29 07:34:40;;;;;;;;;;;20.30;66.40;;;-151.14;100.00;62537.16;5091266;28;20124;-83
2023/06/29 07:37:08;;;;;;;;;;;20.30;66.40;;;-151.14;100.00;62537.16;5091456;28;19942;-83
2023/06/29 07:39:36;;;;;;;;;;;20.30;66.40;;;-151.14;100.00;62537.16;5074745;28;19920;-83
2023/06/29 07:42:04;;;;;;;;;;;20.30;66.30;;;-151.14;100.00;62537.16;5091012;28;20212;-83
2023/06/29 07:44:34;;;;;;;;;;;20.30;66.30;;;-151.14;100.00;62537.16;5091121;28;19928;-84
2023/06/29 07:47:01;;;;;;;;;;;20.30;66.40;;;-151.14;100.00;62537.16;5091413;28;19920;-84
2023/06/29 07:49:29;;;;;;;;;;;20.30;66.40;;;-151.14;100.00;62537.16;5074398;28;20123;-83
2023/06/29 07:52:00;;;;;;;;;;;20.30;66.40;;;-151.14;100.00;62537.16;5090691;28;20283;-83
2023/06/29 07:54:28;;;;;;;;;;;20.30;66.40;;;-151.14;100.00;62537.16;5091022;28;19920;-83
2023/06/29 07:56:56;;;;;;;;;;;20.40;66.40;;;-151.14;100.00;62537.16;5092440;28;19934;-83
2023/06/29 07:59:24;;;;;;;;;;;20.40;66.50;;;-151.14;100.00;62537.16;5091147;28;20128;-83
2023/06/29 08:01:54;;;;;;;;;;;20.40;66.40;;;-151.14;100.00;62537.16;5090517;28;19920;-83
2023/06/29 08:04:22;;;;;;;;;;;20.40;66.20;;;-151.14;100.00;62537.16;5091086;28;19920;-83
2023/06/29 08:06:49;;;;;;;;;;;20.40;66.10;;;-151.14;100.00;62537.16;5074380;28;19920;-83
2023/06/29 08:09:17;;;;;;;;;;;20.40;66.20;;;-151.14;100.00;62537.16;5090864;28;19920;-83
2023/06/29 08:11:45;;;;;;;;;;;20.50;66.30;;;-151.14;100.00;62537.16;5090432;28;19920;-83
2023/06/29 08:14:14;;;;;;;;;;;20.40;65.80;;;-151.14;100.00;62537.16;5091818;28;20204;-83
2023/06/29 08:16:41;;;;;;;;;;;20.50;65.90;;;-151.14;100.00;62537.16;5090768;28;19927;-83
2023/06/29 08:19:11;;;;;;;;;;;20.50;65.70;;;-151.14;100.00;62537.16;5074191;28;19920;-83
2023/06/29 08:21:39;;;;;;;;;;;20.50;65.60;;;-151.14;100.00;62537.16;5090443;28;19920;-83
2023/06/29 08:24:08;;;;;;;;;;;20.50;65.70;;;-151.14;100.00;62537.16;5090936;28;19920;-83
2023/06/29 08:26:35;;;;;;;;;;;20.50;65.50;;;-151.14;100.00;62537.16;5090646;28;19920;-83
2023/06/29 08:29:03;;;;;;;;;;;20.50;65.40;;;-151.14;100.00;62537.16;5090797;28;19920;-83
2023/06/29 08:31:31;;;;;;;;;;;20.50;65.50;;;-151.14;100.00;62537.16;5090044;28;19927;-83
2023/06/29 08:33:59;;;;;;;;;;;20.50;65.20;;;-151.14;100.00;62537.16;5091855;28;19920;-83
2023/06/29 08:36:29;;;;;;;;;;;20.50;65.40;;;-151.14;100.00;62537.16;5090443;28;19926;-83
2023/06/29 08:38:57;;;;;;;;;;;20.50;65.00;;;-151.14;100.00;62537.16;5090470;28;19920;-83
2023/06/29 08:41:25;;;;;;;;;;;20.50;64.80;;;-151.14;100.00;62537.16;5090113;28;19926;-82
2023/06/29 08:43:53;;;;;;;;;;;20.50;64.90;;;-151.14;100.00;62537.16;5090537;28;19920;-83
2023/06/29 08:46:21;;;;;;;;;;;20.50;65.10;;;-151.14;100.00;62537.16;5091544;28;19926;-83
2023/06/29 08:48:49;;;;;;;;;;;20.50;65.20;;;-151.14;100.00;62537.16;5091744;28;19926;-83
2023/06/29 08:51:18;;;;;;;;;;;20.50;65.10;;;-151.14;100.00;62537.16;5089632;28;19946;-83
2023/06/29 08:53:47;;;;;;;;;;;20.50;65.10;;;-151.14;100.00;62537.16;5090520;28;19926;-83
2023/06/29 08:56:15;;;;;;;;;;;20.50;65.00;;;-151.14;100.00;62537.16;5070061;28;20220;-83
2023/06/29 08:58:43;;;;;;;;;;;20.50;64.90;;;-151.14;100.00;62537.16;5070187;28;19920;-83
2023/06/29 09:01:11;;;;;;;;;;;20.50;65.00;;;-151.14;100.00;62537.16;5070485;28;19926;-83
2023/06/29 09:03:39;;;;;;;;;;;20.50;65.00;;;-151.14;100.00;62537.16;5070011;28;19921;-84
2023/06/29 09:06:09;;;;;;;;;;;20.50;64.80;;;-151.14;100.00;62537.16;5069936;28;20120;-83
2023/06/29 09:08:37;;;;;;;;;;;20.50;64.80;;;-151.14;100.00;62537.16;5070171;28;19935;-83
2023/06/29 09:11:06;;;;;;;;;;;20.40;65.30;;;-151.14;100.00;62537.16;5070724;28;20360;-83
2023/06/29 09:13:34;;;;;;;;;;;20.40;65.30;;;-151.14;100.00;62537.16;5053441;28;20204;-83
2023/06/29 09:16:03;;;;;;;;;;;20.40;65.20;;;-151.14;100.00;62537.16;5070939;28;19927;-83
2023/06/29 09:18:31;;;;;;;;;;;20.40;64.90;;;-151.14;100.00;62537.16;5053269;28;19921;-83
2023/06/29 09:20:59;;;;;;;;;;;20.40;65.10;;;-151.14;100.00;62537.16;5069697;28;20112;-83
2023/06/29 09:23:28;;;;;;;;;;;20.40;64.90;;;-151.14;100.00;62537.16;5070367;28;19921;-83
2023/06/29 09:25:56;;;;;;;;;;;20.40;65.10;;;-151.14;100.00;62537.16;5082989;28;19920;-83
2023/06/29 09:28:26;;;;;;;;;;;20.40;64.90;;;-151.14;100.00;62537.16;5089812;28;19920;-83
2023/06/29 09:30:54;;;;;;;;;;;20.30;65.10;;;-151.14;100.00;62537.16;5090943;28;19920;-83
2023/06/29 09:33:26;;;;;;;;;;;20.30;64.90;;;-151.14;100.00;62537.16;5090459;28;19927;-83
2023/06/29 09:35:54;;;;;;;;;;;20.30;64.80;;;-151.14;100.00;62537.16;5090748;28;19921;-83
2023/06/29 09:38:22;;;;;;;;;;;20.30;64.80;;;-151.14;100.00;62537.16;5089814;28;20006;-84
2023/06/29 09:40:50;;;;;;;;;;;20.30;64.80;;;-151.14;100.00;62537.16;5072867;28;19920;-84
2023/06/29 09:43:18;;;;;;;;;;;20.20;64.70;;;-151.14;100.00;62537.16;5089121;28;19927;-83
2023/06/29 09:45:48;;;;;;;;;;;20.20;64.80;;;-151.14;100.00;62537.16;5090698;28;19926;-83
2023/06/29 09:48:15;;;;;;;;;;;20.20;64.70;;;-151.14;100.00;62537.16;5073024;28;19966;-84
2023/06/29 09:50:48;;;;;;;;;;;20.20;64.90;;;-151.14;100.00;62537.16;5072501;28;19946;-83
2023/06/29 09:53:16;;;;;;;;;;;20.20;64.90;;;-151.14;100.00;62537.16;5089206;28;20094;-83
2023/06/29 09:55:44;;;;;;;;;;;20.10;65.20;;;-151.14;100.00;62537.16;5091341;28;19920;-83
2023/06/29 09:58:12;;;;;;;;;;;20.20;65.10;;;-151.14;100.00;62537.16;5094164;28;19927;-83
2023/06/29 10:00:41;;;;;;;;;;;20.20;65.30;;;-151.14;100.00;62537.16;5092913;28;19956;-83
2023/06/29 10:03:10;;;;;;;;;;;20.20;65.50;;;-151.14;100.00;62537.16;5092406;28;19939;-83
2023/06/29 10:05:38;;;;;;;;;;;20.20;65.60;;;-151.14;100.00;62537.16;5092778;28;19920;-84
2023/06/29 10:08:07;;;;;;;;;;;20.20;65.50;;;-151.14;100.00;62537.16;5076286;28;19920;-83
2023/06/29 10:10:35;;;;;;;;;;;20.20;65.60;;;-151.14;100.00;62537.16;5092884;28;19920;-83
2023/06/29 10:13:04;;;;;;;;;;;20.20;65.60;;;-151.14;100.00;62537.16;5093482;28;19920;-83
2023/06/29 10:15:32;;;;;;;;;;;20.20;65.60;;;-151.14;100.00;62537.16;5092812;28;19920;-83
2023/06/29 10:18:02;;;;;;;;;;;20.30;65.90;;;-151.14;100.00;62537.16;5094017;28;20119;-83
2023/06/29 10:20:32;;;;;;;;;;;20.30;65.90;;;-151.14;100.00;62537.16;5092754;28;20100;-84
2023/06/29 10:23:02;;;;;;;;;;;20.30;65.70;;;-151.14;100.00;62537.16;5075156;28;19920;-83
2023/06/29 10:25:30;;;;;;;;;;;20.30;65.80;;;-151.14;100.00;62537.16;5092312;28;19926;-83
2023/06/29 10:27:58;;;;;;;;;;;20.30;65.70;;;-151.14;100.00;62537.16;5092541;28;19920;-83
2023/06/29 10:30:25;;;;;;;;;;;20.30;65.90;;;-151.14;100.00;62537.16;5075812;28;20132;-84
2023/06/29 10:32:54;;;;;;;;;;;20.30;65.70;;;-151.14;100.00;62537.16;5091769;28;19929;-83
2023/06/29 10:35:23;;;;;;;;;;;20.30;65.70;;;-151.14;100.00;62537.16;5109465;28;19924;-84
2023/06/29 10:37:53;;;;;;;;;;;20.30;65.60;;;-151.14;100.00;62537.16;5092450;28;19920;-83
2023/06/29 10:40:21;;;;;;;;;;;20.30;65.70;;;-151.14;100.00;62537.16;5091747;28;20230;-83
2023/06/29 10:42:53;;;;;;;;;;;20.30;65.80;;;-151.14;100.00;62537.16;5091723;28;19924;-84
2023/06/29 10:45:33;;;;;;;;;;;20.30;65.80;;;-151.14;100.00;62537.16;5092450;28;19920;-83
2023/06/29 10:48:08;;;;;;;;;;;20.30;66.10;;;-151.14;100.00;62537.16;5093345;28;20212;-83
2023/06/29 10:50:38;;;;;;;;;;;20.30;65.90;;;-151.14;100.00;62537.16;5093490;28;19926;-83
2023/06/29 10:53:09;;;;;;;;;;;20.30;66.30;;;-151.14;100.00;62537.16;5092717;28;20204;-83
2023/06/29 10:55:41;;;;;;;;;;;20.30;65.90;;;-151.14;100.00;62537.16;5075257;28;19927;-82
2023/06/29 10:58:20;;;;;;;;;;;20.30;65.60;;;-151.14;100.00;62537.16;5092077;28;19920;-83
2023/06/29 11:00:48;;;;;;;;;;;20.30;65.60;;;-151.14;100.00;62537.16;5092329;28;19926;-82